• Join FlightAware (Why Join?)
  • Login
  • US Flag 
01:59AM EDT


 

Airport Tracker/Info


-or-


 

Live Flight TrackerFlight Track Log ✈ ASQ4264 ✈ 21-Apr-2012 ✈ KORD - KCLE

Flight Track Log - Related Links

Times and Time Zones

All times are in EDT time to prevent confusion due to time zone crossing. See the ASQ4264 flight status page for this flight to view local times or setup timezone preferences in your user account.

Time Position Orientation Groundspeed Altitude Reporting Facility
EDT Latitude Longitude Course Direction KTS MPH feet Rate Location/Type
09:02AM 41.9829 -87.8751 329° Northwest  Level FlightAware Approximate
09:03AM 42.0333 -87.9167 90° East 190 219 3,500  Level Chicago TRACON
09:03AM 42.0333 -87.8500 94° East 224 258 5,000 1,380 Climbing Chicago TRACON
09:05AM 42.0261 -87.7147 90° East 259 298 7,000 1,680 Climbing Chicago Center
09:06AM 42.0267 -87.6139 91° East 259 298 9,400 1,920 Climbing Chicago Center
09:07AM 42.0250 -87.5050 89° East 271 312 10,900 1,200 Climbing Chicago Center
09:08AM 42.0269 -87.3764 90° East 309 356 11,800 1,200 Climbing Chicago Center
09:09AM 42.0267 -87.2394 88° East 340 391 13,300 1,380 Climbing Chicago Center
09:10AM 42.0303 -87.0994 88° East 359 413 14,600 1,260 Climbing Chicago Center
09:11AM 42.0336 -86.9569 88° East 371 427 15,900 1,200 Climbing Chicago Center
09:12AM 42.0369 -86.8114 89° East 377 434 17,100 1,200 Climbing Chicago Center
09:13AM 42.0392 -86.6406 89° East 397 457 18,300 1,200 Climbing Chicago Center
09:14AM 42.0417 -86.4894 90° East 404 465 19,500 1,200 Climbing Chicago Center
09:15AM 42.0419 -86.3358 88° East 404 465 20,800 1,140 Climbing Chicago Center
09:16AM 42.0464 -86.1928 89° East 404 465 21,800 1,020 Climbing Chicago Center
09:17AM 42.0483 -86.0361 90° East 415 478 22,900 600 Climbing Chicago Center
09:18AM 42.0478 -85.8739 89° East 423 487 23,000  Climbing Chicago Center
09:19AM 42.0506 -85.7003 89° East 443 510 23,000  Level Chicago Center
09:21AM 42.0533 -85.3828 89° East 478 550 23,000  Level Cleveland Center
09:22AM 42.0550 -85.1953 91° East 459 528 23,000  Level Cleveland Center
09:23AM 42.0531 -85.0272 90° East 453 521 23,000  Level Cleveland Center
09:24AM 42.0533 -84.8567 91° East 453 521 23,000  Level Cleveland Center
09:25AM 42.0514 -84.6803 88° East 464 534 23,000  Level Cleveland Center
09:26AM 42.0556 -84.5072 91° East 464 534 23,000  Level Cleveland Center
09:27AM 42.0528 -84.3392 90° East 455 524 23,000  Level Cleveland Center
09:28AM 42.0517 -84.1739 89° East 455 524 23,000  Level Cleveland Center
09:29AM 42.0528 -84.0006 91° East 450 518 23,000  Level Cleveland Center
09:30AM 42.0494 -83.8269 90° East 458 527 23,000  Level Cleveland Center
09:31AM 42.0500 -83.6592 92° East 458 527 23,000  Level Cleveland Center
09:32AM 42.0442 -83.4828 94° East 463 533 23,000 -420 Level Cleveland Center
09:33AM 42.0339 -83.3089 98° East 463 533 22,200 -1,200 Descending Cleveland Center
09:34AM 42.0150 -83.1375 98° East 468 539 20,700 -1,500 Descending Cleveland Center
09:35AM 41.9994 -82.9806 97° East 447 514 19,300 -1,920 Descending Cleveland Center
09:36AM 41.9842 -82.8178 97° East 442 509 16,900 -2,520 Descending Cleveland Center
09:37AM 41.9703 -82.6694 101° East 416 479 14,300 -1,500 Descending Cleveland Center
09:38AM 41.9497 -82.5292 112° Southeast 390 449 14,000 -660 Descending Cleveland Center
09:39AM 41.9181 -82.4219 114° Southeast 394 453 13,200 -1,920 Descending Cleveland Center
09:40AM 41.8722 -82.2842 114° Southeast 372 428 10,400 -1,500 Descending Cleveland Center
09:41AM 41.8303 -82.1603 144° Southeast 365 420 10,000 -240 Descending Cleveland Center
09:42AM 41.7458 -82.0775 146° Southeast 356 410 10,000  Level Cleveland Center
09:43AM 41.6614 -82.0006 145° Southeast 368 423 10,000  Level Cleveland Center
09:44AM 41.5769 -81.9211 151° Southeast 346 398 10,000 -660 Level Cleveland Center
09:45AM 41.5086 -81.8697 214° Southwest 278 320 8,800 -1,560 Descending Cleveland Center
09:46AM 41.4539 -81.9186 226° Southwest 256 295 6,900 -2,400 Descending Cleveland Center
09:47AM 41.4053 -81.9867 233° Southwest 242 278 3,900 -1,980 Descending Cleveland Center
09:48AM 41.3667 -82.0550 213° Southwest 238 274 3,000 -480 Descending Cleveland Center
09:49AM 41.3161 -82.0981 104° East 232 267 3,000  Level Cleveland Center
09:50AM 41.3025 -82.0258 49° Northeast 216 249 3,000 -120 Level Cleveland Center
09:51AM 41.3367 -81.9742 49° Northeast 193 222 2,800 -600 Descending Cleveland Center
09:52AM 41.3664 -81.9278 49° Northeast 144 166 1,900 -840 Descending Cleveland Center
09:53AM 41.3897 -81.8922 49° Northeast 125 144 1,200 -720 Descending Cleveland Center